createdAt,value
2022-10-24T00:01:23.871Z,97564.59
2022-10-24T00:03:51.235Z,97561.47
2022-10-24T00:06:18.611Z,97564.63
2022-10-24T00:08:47.886Z,97570.72
2022-10-24T00:11:17.998Z,97576.69
2022-10-24T00:13:46.646Z,97582.44
2022-10-24T00:16:14.064Z,97585.84
2022-10-24T00:18:44.645Z,97599.13
2022-10-24T00:21:11.292Z,97600.03
2022-10-24T00:23:38.309Z,97595.34
2022-10-24T00:26:05.595Z,97619.16
2022-10-24T00:28:40.146Z,97621.59
2022-10-24T00:31:08.931Z,97622.06
2022-10-24T00:33:35.951Z,97617.25
2022-10-24T00:36:04.164Z,97617.25
2022-10-24T00:38:30.684Z,97590.28
2022-10-24T00:40:57.285Z,97599.06
2022-10-24T00:43:28.281Z,97610.38
2022-10-24T00:45:57.481Z,97604.78
2022-10-24T00:48:48.352Z,97616.75
2022-10-24T00:51:26.659Z,97626.19
2022-10-24T00:54:01.536Z,97623.19
2022-10-24T00:56:31.282Z,97617.91
2022-10-24T00:59:08.337Z,97632.06
2022-10-24T01:01:36.023Z,97645.09
2022-10-24T01:04:02.817Z,97628.84
2022-10-24T01:06:38.589Z,97641.69
2022-10-24T01:09:11.390Z,97638.31
2022-10-24T01:12:04.390Z,97640.50
2022-10-24T01:14:36.460Z,97651.44
2022-10-24T01:17:25.860Z,97637.31
2022-10-24T01:20:09.762Z,97640.69
2022-10-24T01:23:17.383Z,97634.59
2022-10-24T01:25:49.418Z,97621.09
2022-10-24T01:28:22.419Z,97624.81
2022-10-24T01:30:53.896Z,97628.97
2022-10-24T01:33:30.650Z,97638.84
2022-10-24T01:36:08.143Z,97615.94
2022-10-24T01:38:43.172Z,97620.75
2022-10-24T01:41:13.513Z,97629.09
2022-10-24T01:43:50.336Z,97627.63
2022-10-24T01:46:24.895Z,97624.00
2022-10-24T01:49:16.370Z,97622.91
2022-10-24T01:51:44.806Z,97627.72
2022-10-24T01:54:13.052Z,97622.44
2022-10-24T01:56:44.057Z,97625.75
2022-10-24T01:59:28.647Z,97628.94
2022-10-24T02:02:17.963Z,97612.47
2022-10-24T02:04:51.692Z,97613.34
2022-10-24T02:07:23.284Z,97604.03
2022-10-24T02:09:55.438Z,97610.25
2022-10-24T02:12:27.562Z,97617.72
2022-10-24T02:15:01.176Z,97624.19
2022-10-24T02:17:31.207Z,97614.69
2022-10-24T02:19:58.614Z,97617.44
2022-10-24T02:22:48.364Z,97604.03
2022-10-24T02:25:24.609Z,97611.41
2022-10-24T02:28:03.497Z,97599.88
2022-10-24T02:30:34.150Z,97603.72
2022-10-24T02:33:03.549Z,97593.31
2022-10-24T02:35:32.772Z,97588.59
2022-10-24T02:38:11.557Z,97586.50
2022-10-24T02:40:39.813Z,97584.09
2022-10-24T02:43:14.772Z,97592.19
2022-10-24T02:45:41.376Z,97584.63
2022-10-24T02:48:12.482Z,97578.41
2022-10-24T02:50:42.031Z,97576.56
2022-10-24T02:53:19.248Z,97608.66
2022-10-24T02:55:47.631Z,97619.28
2022-10-24T02:58:14.118Z,97644.81
2022-10-24T03:00:40.782Z,97655.59
2022-10-24T03:03:07.389Z,97649.63
2022-10-24T03:05:33.939Z,97640.91
2022-10-24T03:08:00.455Z,97637.97
2022-10-24T03:10:28.679Z,97646.81
2022-10-24T03:12:57.196Z,97648.50
2022-10-24T03:15:23.749Z,97683.81
2022-10-24T03:17:50.407Z,97682.97
2022-10-24T03:20:18.750Z,97694.97
2022-10-24T03:22:45.275Z,97674.91
2022-10-24T03:25:14.198Z,97663.72
2022-10-24T03:27:40.717Z,97645.00
2022-10-24T03:30:08.204Z,97649.44
2022-10-24T03:32:41.485Z,97648.66
2022-10-24T03:38:01.402Z,97642.75
2022-10-24T03:40:27.975Z,97629.53
2022-10-24T03:42:54.771Z,97641.22
2022-10-24T03:45:21.410Z,97651.44
2022-10-24T03:47:47.885Z,97662.38
2022-10-24T03:50:16.282Z,97656.06
2022-10-24T03:52:47.657Z,97657.03
2022-10-24T03:55:14.423Z,97662.03
2022-10-24T03:57:40.980Z,97655.22
2022-10-24T04:00:09.733Z,97655.06
2022-10-24T04:02:37.966Z,97656.00
2022-10-24T04:05:10.576Z,97647.16
2022-10-24T04:07:39.409Z,97662.00
2022-10-24T04:10:06.630Z,97662.44
2022-10-24T04:12:33.500Z,97666.41
2022-10-24T04:15:03.929Z,97672.31
2022-10-24T04:17:31.911Z,97666.94
2022-10-24T04:19:58.674Z,97670.88
2022-10-24T04:22:25.165Z,97648.00
2022-10-24T04:24:51.687Z,97628.50
2022-10-24T04:27:18.213Z,97625.34
2022-10-24T04:29:51.281Z,97624.06
2022-10-24T04:32:17.863Z,97619.75
2022-10-24T04:34:44.342Z,97614.72
2022-10-24T04:37:15.199Z,97613.69
2022-10-24T04:39:41.685Z,97605.53
2022-10-24T04:42:08.322Z,97589.59
2022-10-24T04:44:36.618Z,97592.41
2022-10-24T04:47:03.158Z,97592.44
2022-10-24T04:49:29.801Z,97601.44
2022-10-24T04:51:58.484Z,97609.25
2022-10-24T04:54:25.231Z,97606.59
2022-10-24T04:56:51.803Z,97620.63
2022-10-24T04:59:18.446Z,97605.50
2022-10-24T05:01:45.022Z,97617.19
2022-10-24T05:04:12.644Z,97622.72
2022-10-24T05:06:48.071Z,97625.97
2022-10-24T05:09:16.864Z,97614.00
2022-10-24T05:11:43.368Z,97613.69
2022-10-24T05:14:10.392Z,97632.44
2022-10-24T05:16:36.970Z,97627.47
2022-10-24T05:19:03.638Z,97625.19
2022-10-24T05:21:32.361Z,97648.97
2022-10-24T05:23:58.866Z,97650.53
2022-10-24T05:26:25.726Z,97639.28
2022-10-24T05:28:54.409Z,97630.34
2022-10-24T05:31:21.234Z,97635.38
2022-10-24T05:33:47.780Z,97614.78
2022-10-24T05:36:16.081Z,97615.22
2022-10-24T05:38:42.570Z,97622.22
2022-10-24T05:41:10.853Z,97614.88
2022-10-24T05:43:39.089Z,97614.88
2022-10-24T05:46:07.429Z,97610.50
2022-10-24T05:48:33.956Z,97606.22
2022-10-24T05:51:00.554Z,97609.25
2022-10-24T05:53:30.587Z,97613.44
2022-10-24T05:55:57.039Z,97614.16
2022-10-24T05:58:29.251Z,97616.81
2022-10-24T06:00:55.935Z,97611.63
2022-10-24T06:03:22.896Z,97608.91
2022-10-24T06:05:52.355Z,97611.63
2022-10-24T06:08:19.101Z,97609.34
2022-10-24T06:10:50.759Z,97614.81
2022-10-24T06:13:20.299Z,97616.34
2022-10-24T06:15:46.822Z,97615.56
2022-10-24T06:18:13.459Z,97623.00
2022-10-24T06:20:40.198Z,97614.16
2022-10-24T06:23:06.693Z,97615.03
2022-10-24T06:25:33.294Z,97620.16
2022-10-24T06:28:02.360Z,97635.34
2022-10-24T06:30:29.060Z,97641.59
2022-10-24T06:32:55.536Z,97644.75
2022-10-24T06:35:22.194Z,97636.09
2022-10-24T06:37:48.853Z,97643.50
2022-10-24T06:40:17.155Z,97635.63
2022-10-24T06:42:48.721Z,97644.47
2022-10-24T06:45:15.310Z,97635.06
2022-10-24T06:47:41.788Z,97638.78
2022-10-24T06:50:08.731Z,97642.97
2022-10-24T06:52:36.841Z,97671.31
2022-10-24T06:55:03.882Z,97668.19
2022-10-24T06:57:30.514Z,97661.50
2022-10-24T06:59:56.999Z,97679.78
2022-10-24T07:02:23.615Z,97677.78
2022-10-24T07:04:52.494Z,97676.19
2022-10-24T07:07:21.734Z,97671.16
2022-10-24T07:09:54.499Z,97679.00
2022-10-24T07:12:24.086Z,97697.78
2022-10-24T07:14:50.837Z,97717.28
2022-10-24T07:17:26.445Z,97711.09
2022-10-24T07:19:54.147Z,97688.25
2022-10-24T07:22:23.402Z,97700.47
2022-10-24T07:24:54.373Z,97717.03
2022-10-24T07:27:21.855Z,97727.25
2022-10-24T07:29:48.591Z,97740.56
2022-10-24T07:32:15.212Z,97771.00
2022-10-24T07:34:41.866Z,97773.38
2022-10-24T07:37:08.433Z,97757.75
2022-10-24T07:39:42.024Z,97732.78
2022-10-24T07:42:12.254Z,97740.66
2022-10-24T07:44:38.890Z,97749.66
2022-10-24T07:47:07.790Z,97755.56
2022-10-24T07:49:34.800Z,97757.94
2022-10-24T07:52:01.362Z,97756.41
2022-10-24T07:54:30.725Z,97766.56
2022-10-24T07:56:59.807Z,97732.28
2022-10-24T07:59:41.216Z,97722.97
2022-10-24T08:02:13.797Z,97724.53
2022-10-24T08:04:40.720Z,97736.59
2022-10-24T08:07:13.283Z,97761.50
2022-10-24T08:09:51.401Z,97777.09
2022-10-24T08:12:18.304Z,97773.16
2022-10-24T08:14:47.495Z,97788.69
2022-10-24T08:17:19.537Z,97802.94
2022-10-24T08:19:46.296Z,97819.25
2022-10-24T08:22:12.801Z,97809.13
2022-10-24T08:24:39.401Z,97808.38
2022-10-24T08:27:05.901Z,97795.94
2022-10-24T08:29:32.452Z,97787.34
2022-10-24T08:32:04.174Z,97776.19
2022-10-24T08:34:30.663Z,97754.88
2022-10-24T08:36:57.289Z,97775.06
2022-10-24T08:39:34.623Z,97768.91
2022-10-24T08:42:07.090Z,97762.63
2022-10-24T08:44:42.359Z,97756.38
2022-10-24T08:47:09.994Z,97771.03
2022-10-24T08:49:46.425Z,97773.47
2022-10-24T08:52:23.886Z,97763.78
2022-10-24T08:54:53.689Z,97762.56
2022-10-24T08:57:25.347Z,97790.13
2022-10-24T08:59:54.708Z,97796.31
2022-10-24T09:02:28.490Z,97792.56
2022-10-24T09:05:24.750Z,97808.47
2022-10-24T09:08:03.571Z,97814.00
2022-10-24T09:10:47.035Z,97828.09
2022-10-24T09:13:17.137Z,97819.63
2022-10-24T09:15:45.453Z,97837.13
2022-10-24T09:18:36.581Z,97853.09
2022-10-24T09:21:05.534Z,97855.44
2022-10-24T09:23:34.073Z,97846.91
2022-10-24T09:26:03.706Z,97855.84
2022-10-24T09:28:32.632Z,97875.63
2022-10-24T09:31:09.577Z,97874.84
2022-10-24T09:33:40.849Z,97877.94
2022-10-24T09:36:13.375Z,97889.63
2022-10-24T09:38:41.527Z,97883.78
2022-10-24T09:41:13.863Z,97907.06
2022-10-24T09:43:52.754Z,97924.94
2022-10-24T09:46:22.794Z,97941.63
2022-10-24T09:48:59.433Z,97948.19
2022-10-24T09:51:25.854Z,97962.56
2022-10-24T09:54:07.536Z,97946.66
2022-10-24T09:56:39.369Z,97918.31
2022-10-24T09:59:43.826Z,97880.28
2022-10-24T10:02:14.212Z,97888.44
2022-10-24T10:04:42.004Z,97888.81
2022-10-24T10:07:20.216Z,97888.78
2022-10-24T10:09:57.159Z,97900.81
2022-10-24T10:12:41.105Z,97896.94
2022-10-24T10:15:30.902Z,97922.56
2022-10-24T10:18:03.272Z,97915.59
2022-10-24T10:20:38.728Z,97874.81
2022-10-24T10:23:32.322Z,97877.97
2022-10-24T10:26:04.506Z,97903.56
2022-10-24T10:28:37.325Z,97920.22
2022-10-24T10:31:04.384Z,97884.91
2022-10-24T10:33:45.114Z,97892.28
2022-10-24T10:36:23.973Z,97899.25
2022-10-24T10:39:14.151Z,97887.59
2022-10-24T10:41:49.512Z,97895.75
2022-10-24T10:44:19.117Z,97899.28
2022-10-24T10:46:51.441Z,97885.31
2022-10-24T10:49:31.693Z,97896.59
2022-10-24T10:52:22.912Z,97896.97
2022-10-24T10:54:49.534Z,97903.19
2022-10-24T10:57:26.487Z,97928.41
2022-10-24T11:00:27.253Z,97911.72
2022-10-24T11:03:05.997Z,97891.16
2022-10-24T11:06:00.446Z,97859.31
2022-10-24T11:08:39.791Z,97856.22
2022-10-24T11:11:25.352Z,97866.69
2022-10-24T11:13:58.487Z,97888.81
2022-10-24T11:16:31.281Z,97884.94
2022-10-24T11:19:04.942Z,97856.59
2022-10-24T11:21:35.697Z,97839.91
2022-10-24T11:24:20.824Z,97825.16
2022-10-24T11:27:02.092Z,97825.53
2022-10-24T11:29:40.425Z,97826.66
2022-10-24T11:32:31.382Z,97821.19
2022-10-24T11:35:22.479Z,97819.22
2022-10-24T11:37:54.418Z,97821.13
2022-10-24T11:40:22.799Z,97822.69
2022-10-24T11:43:07.492Z,97831.25
2022-10-24T11:45:44.416Z,97830.81
2022-10-24T11:48:17.044Z,97828.41
2022-10-24T11:50:56.250Z,97829.88
2022-10-24T11:53:34.533Z,97831.00
2022-10-24T11:56:14.269Z,97835.19
2022-10-24T11:58:59.191Z,97840.22
2022-10-24T12:01:34.960Z,97839.81
2022-10-24T12:04:18.817Z,97843.72
2022-10-24T12:06:45.727Z,97846.56
2022-10-24T12:09:53.336Z,97843.09
2022-10-24T12:12:36.100Z,97842.34
2022-10-24T12:15:20.123Z,97852.84
2022-10-24T12:18:09.662Z,97848.97
2022-10-24T12:20:41.246Z,97836.56
2022-10-24T12:23:18.220Z,97835.00
2022-10-24T12:25:48.844Z,97827.22
2022-10-24T12:28:25.891Z,97828.78
2022-10-24T12:31:12.448Z,97831.50
2022-10-24T12:33:39.005Z,97820.63
2022-10-24T12:36:05.776Z,97805.44
2022-10-24T12:38:32.344Z,97812.03
2022-10-24T12:41:09.664Z,97803.88
2022-10-24T12:43:46.921Z,97801.53
2022-10-24T12:46:20.218Z,97801.53
2022-10-24T12:49:00.442Z,97804.25
2022-10-24T12:51:39.069Z,97808.13
2022-10-24T12:54:11.929Z,97805.75
2022-10-24T13:00:01.526Z,97815.38
2022-10-24T13:02:58.577Z,97809.13
2022-10-24T13:06:08.296Z,97805.59
2022-10-24T13:09:06.388Z,97824.25
2022-10-24T13:12:10.718Z,97809.88
2022-10-24T13:15:21.526Z,97788.09
2022-10-24T13:18:07.365Z,97793.94
2022-10-24T13:20:39.445Z,97799.41
2022-10-24T13:23:15.489Z,97794.78
2022-10-24T13:25:43.279Z,97795.16
2022-10-24T13:28:29.093Z,97789.72
2022-10-24T13:30:58.449Z,97795.53
2022-10-24T13:33:35.512Z,97804.06
2022-10-24T13:36:14.829Z,97806.00
2022-10-24T13:39:04.466Z,97801.72
2022-10-24T13:41:44.305Z,97812.13
2022-10-24T13:44:27.433Z,97815.59
2022-10-24T13:47:07.929Z,97810.78
2022-10-24T13:49:46.500Z,97810.97
2022-10-24T13:52:24.846Z,97816.31
2022-10-24T13:54:58.538Z,97813.03
2022-10-24T13:57:29.059Z,97808.72
2022-10-24T14:00:07.748Z,97801.28
2022-10-24T14:02:39.890Z,97804.31
2022-10-24T14:05:18.002Z,97805.09
2022-10-24T14:07:44.894Z,97801.94
2022-10-24T14:10:17.061Z,97795.16
2022-10-24T14:12:46.731Z,97804.47
2022-10-24T14:15:20.850Z,97813.63
2022-10-24T14:17:58.509Z,97793.34
2022-10-24T14:20:34.201Z,97811.50
2022-10-24T14:23:03.489Z,97812.34
2022-10-24T14:25:35.270Z,97821.28
2022-10-24T14:28:16.928Z,97817.44
2022-10-24T14:30:54.882Z,97816.84
2022-10-24T14:33:29.515Z,97824.34
2022-10-24T14:36:00.132Z,97826.00
2022-10-24T14:38:28.354Z,97819.72
2022-10-24T14:41:07.905Z,97820.03
2022-10-24T14:43:39.834Z,97811.00
2022-10-24T14:46:12.561Z,97796.63
2022-10-24T14:48:47.318Z,97806.38
2022-10-24T14:51:42.449Z,97798.53
2022-10-24T14:54:18.740Z,97802.41
2022-10-24T14:56:46.502Z,97805.00
2022-10-24T14:59:35.830Z,97799.16
2022-10-24T15:02:16.331Z,97811.81
2022-10-24T15:04:47.506Z,97812.50
2022-10-24T15:07:30.374Z,97812.72
2022-10-24T15:10:13.319Z,97815.19
2022-10-24T15:12:46.870Z,97816.00
2022-10-24T15:15:31.830Z,97808.19
2022-10-24T15:18:20.913Z,97803.88
2022-10-24T15:20:49.456Z,97802.00
2022-10-24T15:23:27.291Z,97805.31
2022-10-24T15:26:03.038Z,97802.94
2022-10-24T15:28:51.430Z,97804.38
2022-10-24T15:31:20.186Z,97792.78
2022-10-24T15:33:47.621Z,97795.84
2022-10-24T15:36:29.561Z,97800.72
2022-10-24T15:39:04.636Z,97792.28
2022-10-24T15:41:33.283Z,97792.25
2022-10-24T15:44:00.737Z,97797.59
2022-10-24T15:46:28.186Z,97787.94
2022-10-24T15:48:54.798Z,97787.75
2022-10-24T15:51:24.337Z,97788.72
2022-10-24T15:53:51.727Z,97780.75
2022-10-24T15:56:18.403Z,97792.69
2022-10-24T15:58:45.028Z,97798.63
2022-10-24T16:01:36.061Z,97796.53
2022-10-24T16:04:08.089Z,97795.44
2022-10-24T16:06:36.588Z,97797.94
2022-10-24T16:09:04.238Z,97813.72
2022-10-24T16:14:23.376Z,97809.44
2022-10-24T16:16:50.261Z,97806.53
2022-10-24T16:19:18.466Z,97810.63
2022-10-24T16:21:45.087Z,97813.91
2022-10-24T16:24:12.726Z,97804.66
2022-10-24T16:26:39.564Z,97801.13
2022-10-24T16:29:08.675Z,97801.94
2022-10-24T16:31:37.067Z,97798.88
2022-10-24T16:34:03.844Z,97807.94
2022-10-24T16:36:32.623Z,97820.47
2022-10-24T16:38:59.068Z,97821.41
2022-10-24T16:41:30.284Z,97826.09
2022-10-24T16:43:57.784Z,97831.66
2022-10-24T16:46:26.366Z,97829.41
2022-10-24T16:48:53.506Z,97827.16
2022-10-24T16:51:23.732Z,97829.16
2022-10-24T16:53:51.024Z,97822.63
2022-10-24T16:56:17.550Z,97835.09
2022-10-24T17:01:36.414Z,97837.81
2022-10-24T17:04:03.427Z,97846.44
2022-10-24T17:06:31.912Z,97851.53
2022-10-24T17:08:58.432Z,97854.63
2022-10-24T17:11:45.248Z,97862.41
2022-10-24T17:14:14.301Z,97851.19
2022-10-24T17:16:41.984Z,97847.31
2022-10-24T17:19:18.197Z,97849.66
2022-10-24T17:21:52.244Z,97856.25
2022-10-24T17:24:21.493Z,97857.78
2022-10-24T17:26:49.833Z,97866.34
2022-10-24T17:29:26.216Z,97863.25
2022-10-24T17:31:53.784Z,97867.50
2022-10-24T17:34:20.831Z,97879.53
2022-10-24T17:37:16.305Z,97882.59
2022-10-24T17:40:02.179Z,97871.38
2022-10-24T17:42:33.258Z,97875.66
2022-10-24T17:44:59.919Z,97872.53
2022-10-24T17:47:26.536Z,97876.03
2022-10-24T17:49:53.225Z,97880.28
2022-10-24T17:52:24.073Z,97876.81
2022-10-24T17:54:50.877Z,97876.44
2022-10-24T17:57:19.276Z,97889.59
2022-10-24T17:59:45.725Z,97880.69
2022-10-24T18:02:13.979Z,97878.34
2022-10-24T18:04:46.421Z,97880.28
2022-10-24T18:07:13.000Z,97893.44
2022-10-24T18:09:40.188Z,97892.28
2022-10-24T18:12:07.074Z,97898.84
2022-10-24T18:14:36.799Z,97899.63
2022-10-24T18:17:03.470Z,97903.44
2022-10-24T18:19:29.998Z,97919.28
2022-10-24T18:21:57.921Z,97913.84
2022-10-24T18:24:24.400Z,97917.69
2022-10-24T18:26:55.250Z,97926.22
2022-10-24T18:29:23.869Z,97924.63
2022-10-24T18:31:50.553Z,97933.50
2022-10-24T18:34:24.794Z,97929.97
2022-10-24T18:36:52.874Z,97941.19
2022-10-24T18:39:19.477Z,97941.19
2022-10-24T18:41:48.986Z,97943.13
2022-10-24T18:44:27.624Z,97943.16
2022-10-24T18:46:56.722Z,97939.66
2022-10-24T18:49:23.482Z,97946.19
2022-10-24T18:52:01.704Z,97940.78
2022-10-24T18:54:29.431Z,97941.91
2022-10-24T18:56:57.289Z,97945.78
2022-10-24T18:59:23.999Z,97951.22
2022-10-24T19:02:12.213Z,97944.28
2022-10-24T19:04:44.289Z,97941.97
2022-10-24T19:07:11.013Z,97942.69
2022-10-24T19:09:37.598Z,97948.88
2022-10-24T19:12:04.522Z,97939.56
2022-10-24T19:14:31.165Z,97939.56
2022-10-24T19:19:50.033Z,97937.22
2022-10-24T19:22:18.859Z,97944.94
2022-10-24T19:24:45.537Z,97936.03
2022-10-24T19:27:12.271Z,97931.75
2022-10-24T19:29:38.721Z,97935.63
2022-10-24T19:32:05.377Z,97936.72
2022-10-24T19:34:33.748Z,97928.56
2022-10-24T19:37:01.225Z,97936.25
2022-10-24T19:39:33.775Z,97943.59
2022-10-24T19:42:02.542Z,97937.00
2022-10-24T19:44:29.056Z,97933.19
2022-10-24T19:46:55.563Z,97940.94
2022-10-24T19:49:31.019Z,97945.97
2022-10-24T19:51:59.645Z,97944.03
2022-10-24T19:54:26.283Z,97945.94
2022-10-24T19:56:56.731Z,97944.75
2022-10-24T19:59:23.428Z,97941.25
2022-10-24T20:01:50.059Z,97935.44
2022-10-24T20:04:21.242Z,97947.41
2022-10-24T20:06:48.068Z,97941.63
2022-10-24T20:09:14.649Z,97950.50
2022-10-24T20:11:43.338Z,97967.13
2022-10-24T20:14:09.788Z,97967.13
2022-10-24T20:16:36.533Z,97956.63
2022-10-24T20:19:04.134Z,97953.53
2022-10-24T20:21:30.589Z,97950.00
2022-10-24T20:23:57.043Z,97953.84
2022-10-24T20:26:27.824Z,97956.13
2022-10-24T20:28:55.826Z,97952.63
2022-10-24T20:31:41.189Z,97951.41
2022-10-24T20:34:11.239Z,97954.53
2022-10-24T20:36:40.107Z,97958.47
2022-10-24T20:39:11.986Z,97963.88
2022-10-24T20:41:38.582Z,97965.06
2022-10-24T20:44:07.035Z,97967.78
2022-10-24T20:46:34.426Z,97979.41
2022-10-24T20:49:00.951Z,97983.25
2022-10-24T20:51:27.685Z,97979.38
2022-10-24T20:53:54.414Z,97989.81
2022-10-24T20:56:23.378Z,97993.22
2022-10-24T20:58:51.043Z,98001.41
2022-10-24T21:01:25.602Z,98004.94
2022-10-24T21:03:53.046Z,98006.56
2022-10-24T21:06:22.552Z,98012.34
2022-10-24T21:08:51.215Z,98015.88
2022-10-24T21:11:24.991Z,98011.97
2022-10-24T21:13:55.406Z,98012.72
2022-10-24T21:16:23.221Z,98015.03
2022-10-24T21:18:52.419Z,98014.22
2022-10-24T21:21:20.730Z,98011.47
2022-10-24T21:23:52.403Z,98016.44
2022-10-24T21:26:19.842Z,98021.06
2022-10-24T21:28:54.014Z,98025.66
2022-10-24T21:31:25.981Z,98042.69
2022-10-24T21:33:56.629Z,98045.78
2022-10-24T21:36:24.250Z,98062.78
2022-10-24T21:38:53.607Z,98081.34
2022-10-24T21:41:23.435Z,98117.00
2022-10-24T21:43:52.050Z,98164.69
2022-10-24T21:46:21.212Z,98158.06
2022-10-24T21:48:49.568Z,98110.06
2022-10-24T21:51:23.830Z,98104.22
2022-10-24T21:53:53.555Z,98084.88
2022-10-24T21:56:23.094Z,98077.50
2022-10-24T21:58:56.830Z,98075.66
2022-10-24T22:01:27.877Z,98075.72
2022-10-24T22:03:59.395Z,98076.59
2022-10-24T22:06:27.506Z,98098.00
2022-10-24T22:08:55.299Z,98104.19
2022-10-24T22:11:25.022Z,98101.50
2022-10-24T22:13:52.049Z,98103.41
2022-10-24T22:16:22.209Z,98097.94
2022-10-24T22:18:51.301Z,98098.69
2022-10-24T22:21:27.780Z,98095.56
2022-10-24T22:23:59.300Z,98094.41
2022-10-24T22:26:26.892Z,98078.50
2022-10-24T22:28:57.537Z,98088.94
2022-10-24T22:31:30.886Z,98097.81
2022-10-24T22:33:58.093Z,98111.00
2022-10-24T22:36:30.071Z,98110.66
2022-10-24T22:38:59.256Z,98111.41
2022-10-24T22:41:26.190Z,98116.47
2022-10-24T22:43:53.052Z,98141.22
2022-10-24T22:46:46.392Z,98157.47
2022-10-24T22:49:51.660Z,98160.19
2022-10-24T22:52:18.655Z,98162.56
2022-10-24T22:54:45.517Z,98167.53
2022-10-24T22:57:12.374Z,98168.69
2022-10-24T22:59:41.373Z,98165.97
2022-10-24T23:02:36.746Z,98168.69
2022-10-24T23:05:19.436Z,98150.53
2022-10-24T23:07:52.174Z,98141.22
2022-10-24T23:10:22.012Z,98145.88
2022-10-24T23:12:49.612Z,98148.97
2022-10-24T23:15:18.399Z,98151.28
2022-10-24T23:17:47.587Z,98147.00
2022-10-24T23:20:46.690Z,98145.44
2022-10-24T23:23:28.095Z,98150.00
2022-10-24T23:26:23.455Z,98151.81
2022-10-24T23:29:29.456Z,98154.81
2022-10-24T23:31:59.361Z,98154.00
2022-10-24T23:34:26.498Z,98151.66
2022-10-24T23:36:59.266Z,98157.06
2022-10-24T23:39:31.758Z,98161.34
2022-10-24T23:41:58.709Z,98166.00
2022-10-24T23:44:25.722Z,98169.13
2022-10-24T23:47:11.164Z,98172.63
2022-10-24T23:50:14.609Z,98171.13
2022-10-24T23:53:23.048Z,98165.28
2022-10-24T23:55:51.644Z,98162.56
2022-10-24T23:58:18.391Z,98157.09
